Time;durP1;ratioP1;P1;durP2;ratioP2;P2;SDS_P1;SDS_P2;PMS_P1;PMS_P2;Temp;Humidity;BMP_temperature;BMP_pressure;BME280_temperature;BME280_humidity;BME280_pressure;Samples;Min_cycle;Max_cycle;Signal;HPM_P1;HPM_P2
2021/12/12 00:01:03;;;;;;;7.65;5.97;;;;;;;18.14;44.31;101199.84;5054412;28;20041;-83
2021/12/12 00:03:46;;;;;;;9.40;5.80;;;;;;;18.13;44.32;101201.66;5054006;28;20045;-82
2021/12/12 00:06:42;;;;;;;8.30;5.80;;;;;;;18.14;44.12;101203.34;5054612;28;20048;-83
2021/12/12 00:09:23;;;;;;;6.53;5.05;;;;;;;18.14;44.06;101195.31;5053825;28;20476;-83
2021/12/12 00:11:50;;;;;;;8.15;5.60;;;;;;;18.16;44.02;101200.59;5053275;28;20048;-83
2021/12/12 00:14:33;;;;;;;7.28;5.95;;;;;;;18.15;43.86;101206.88;5055054;28;20056;-83
2021/12/12 00:17:02;;;;;;;8.00;5.75;;;;;;;18.15;43.81;101205.09;5054743;28;20047;-83
2021/12/12 00:19:32;;;;;;;7.05;5.00;;;;;;;18.15;43.70;101207.78;5054169;28;20037;-83
2021/12/12 00:22:03;;;;;;;7.68;5.10;;;;;;;18.16;43.80;101212.16;5053964;28;20036;-83
2021/12/12 00:24:30;;;;;;;7.78;5.38;;;;;;;18.15;43.85;101218.50;5054173;28;20056;-83
2021/12/12 00:26:58;;;;;;;6.88;5.22;;;;;;;18.17;43.79;101227.25;5054212;28;20503;-84
2021/12/12 00:29:27;;;;;;;7.70;5.68;;;;;;;18.17;43.81;101226.41;5052600;28;20436;-83
2021/12/12 00:31:59;;;;;;;8.40;5.65;;;;;;;18.18;44.13;101220.06;5052406;28;20044;-83
2021/12/12 00:34:30;;;;;;;6.53;5.63;;;;;;;18.17;44.12;101229.94;5054058;28;20464;-83
2021/12/12 00:36:57;;;;;;;5.60;4.93;;;;;;;18.17;43.86;101226.41;5054202;28;20492;-83
2021/12/12 00:39:31;;;;;;;5.30;4.80;;;;;;;18.18;44.03;101228.97;5053914;28;20048;-83
2021/12/12 00:42:05;;;;;;;6.57;5.65;;;;;;;18.18;44.06;101225.44;5053684;28;20518;-83
2021/12/12 00:44:34;;;;;;;6.63;5.20;;;;;;;18.17;44.02;101221.91;5053208;28;20070;-83
2021/12/12 00:47:05;;;;;;;6.60;4.93;;;;;;;18.18;44.09;101230.78;5053268;28;20055;-83
2021/12/12 00:49:35;;;;;;;6.50;5.30;;;;;;;18.18;44.09;101231.63;5053991;28;20350;-83
2021/12/12 00:52:06;;;;;;;6.25;5.05;;;;;;;18.18;44.08;101242.34;5052566;28;20481;-83
2021/12/12 00:54:35;;;;;;;6.65;5.22;;;;;;;18.17;43.93;101240.66;5053966;28;20049;-84
2021/12/12 00:57:09;;;;;;;7.18;4.68;;;;;;;18.18;44.13;101244.19;5051835;28;20064;-83
2021/12/12 00:59:39;;;;;;;7.13;5.25;;;;;;;18.18;44.17;101246.88;5052688;28;20465;-83
2021/12/12 01:02:09;;;;;;;7.40;5.00;;;;;;;18.17;44.08;101237.97;5053032;28;20049;-84
2021/12/12 01:04:42;;;;;;;5.93;4.32;;;;;;;18.16;44.29;101247.00;5053908;28;20488;-83
2021/12/12 01:07:14;;;;;;;5.80;4.82;;;;;;;18.15;44.24;101242.59;5053781;28;20053;-83
2021/12/12 01:09:49;;;;;;;5.70;4.80;;;;;;;18.16;44.17;101247.00;5053396;28;20048;-83
2021/12/12 01:12:20;;;;;;;5.18;4.25;;;;;;;18.16;44.10;101241.63;5053217;28;20044;-83
2021/12/12 01:14:53;;;;;;;5.63;4.47;;;;;;;18.16;44.29;101249.66;5054377;28;20052;-83
2021/12/12 01:17:23;;;;;;;;;;;;;;;18.16;44.19;101244.31;5054195;28;20125;-83
2021/12/12 01:19:58;;;;;;;5.45;4.82;;;;;;;18.14;44.30;101248.91;5053549;28;20364;-82
2021/12/12 01:22:34;;;;;;;5.88;4.57;;;;;;;18.15;44.15;101250.66;5053735;28;20049;-83
2021/12/12 01:25:13;;;;;;;6.57;4.45;;;;;;;18.15;44.31;101256.00;5052340;28;20045;-83
2021/12/12 01:27:41;;;;;;;6.82;4.40;;;;;;;18.14;44.50;101258.78;5053107;28;20049;-83
2021/12/12 01:30:11;;;;;;;5.70;3.72;;;;;;;18.14;44.34;101258.78;5052718;28;20404;-83
2021/12/12 01:32:39;;;;;;;6.05;4.22;;;;;;;18.15;44.37;101268.53;5053769;28;20388;-85
2021/12/12 01:35:14;;;;;;;4.93;4.18;;;;;;;18.13;44.45;101257.94;5052756;28;20059;-81
2021/12/12 01:38:50;;;;;;;4.70;4.20;;;;;;;18.13;44.18;101263.28;5053507;28;20068;-83
2021/12/12 01:40:34;;;;;;;5.63;4.80;;;;;;;18.13;44.29;101257.06;5052663;28;20045;-82
2021/12/12 01:43:11;;;;;;;5.22;4.38;;;;;;;18.13;44.15;101257.94;5052850;28;20056;-85
2021/12/12 01:45:49;;;;;;;6.35;4.18;;;;;;;18.13;44.12;101265.13;5053968;28;20049;-85
2021/12/12 01:48:25;;;;;;;6.05;4.20;;;;;;;18.12;43.89;101266.94;5054103;28;20052;-84
2021/12/12 01:50:59;;;;;;;4.70;3.83;;;;;;;18.12;43.79;101261.59;5051735;28;20053;-84
2021/12/12 01:53:30;;;;;;;5.82;4.25;;;;;;;18.12;43.69;101266.94;5053867;28;20049;-84
2021/12/12 01:56:06;;;;;;;7.32;4.70;;;;;;;18.13;43.71;101273.16;5053772;28;20080;-84
2021/12/12 01:58:38;;;;;;;4.47;3.55;;;;;;;18.13;43.66;101281.19;5054980;28;20389;-84
2021/12/12 02:01:16;;;;;;;4.63;3.90;;;;;;;18.14;43.80;101285.56;5055790;28;20053;-85
2021/12/12 02:03:52;;;;;;;4.10;3.50;;;;;;;18.13;43.73;101284.72;5058937;28;20045;-84
2021/12/12 02:06:22;;;;;;;5.32;3.72;;;;;;;18.13;43.53;101284.72;5058328;28;20059;-84
2021/12/12 02:08:52;;;;;;;4.93;3.78;;;;;;;18.14;43.62;101291.78;5058559;28;20503;-85
2021/12/12 02:11:25;;;;;;;4.72;3.85;;;;;;;18.15;43.64;101284.59;5056345;28;20049;-84
2021/12/12 02:13:56;;;;;;;5.13;3.65;;;;;;;18.13;43.63;101284.72;5056717;28;20056;-84
2021/12/12 02:16:26;;;;;;;4.38;3.17;;;;;;;18.14;43.61;101299.81;5057692;28;20529;-84
2021/12/12 02:18:58;;;;;;;5.32;3.30;;;;;;;18.14;43.40;101307.88;5057750;28;20052;-84
2021/12/12 02:21:36;;;;;;;4.07;3.42;;;;;;;18.13;43.65;101303.47;5056872;28;20041;-84
2021/12/12 02:37:35;;;;;;;4.80;3.58;;;;;;;18.13;43.79;101321.38;5056132;28;20060;-83
2021/12/12 02:40:29;;;;;;;4.53;3.50;;;;;;;18.12;43.70;101315.19;5055821;28;20056;-82
2021/12/12 02:42:57;;;;;;;;;;;;;;;18.11;43.66;101321.50;5054651;28;20041;-83
2021/12/12 02:45:28;;;;;;;4.75;3.28;;;;;;;18.12;43.59;101325.03;5054606;28;20292;-82
2021/12/12 02:48:02;;;;;;;3.92;3.13;;;;;;;18.12;43.51;101331.25;5056624;28;20053;-83
2021/12/12 02:50:35;;;;;;;3.75;2.90;;;;;;;18.11;43.68;101329.53;5054338;28;20107;-83
2021/12/12 02:53:14;;;;;;;7.45;3.33;;;;;;;18.11;43.57;101332.22;5054655;28;20055;-83
2021/12/12 02:55:51;;;;;;;5.00;3.05;;;;;;;18.11;43.48;101340.25;5054609;28;20064;-83
2021/12/12 02:58:21;;;;;;;3.40;2.78;;;;;;;18.10;43.61;101341.22;5054249;28;20155;-83
2021/12/12 03:01:23;;;;;;;3.90;3.03;;;;;;;18.11;43.57;101344.75;5055522;28;20032;-83
2021/12/12 03:03:52;;;;;;;4.03;3.17;;;;;;;18.09;43.50;101342.19;5055358;28;20052;-83
2021/12/12 03:06:26;;;;;;;4.03;3.00;;;;;;;18.10;43.57;101349.25;5055494;28;20389;-84
2021/12/12 03:09:00;;;;;;;4.40;3.53;;;;;;;18.09;43.55;101352.06;5055172;28;20045;-83
2021/12/12 03:11:27;;;;;;;4.45;3.25;;;;;;;18.10;43.50;101356.44;5053175;28;20049;-83
2021/12/12 03:13:56;;;;;;;4.13;2.67;;;;;;;18.09;43.62;101355.59;5055188;28;20045;-84
2021/12/12 03:16:23;;;;;;;4.05;3.10;;;;;;;18.09;43.42;101360.94;5055443;28;20052;-84
2021/12/12 03:18:51;;;;;;;3.03;2.33;;;;;;;18.09;43.55;101360.94;5055584;28;20041;-83
2021/12/12 03:21:34;;;;;;;3.33;2.70;;;;;;;18.09;43.47;101358.25;5055331;28;20051;-83
2021/12/12 03:24:08;;;;;;;3.03;2.58;;;;;;;18.09;43.36;101366.28;5054728;28;20072;-83
2021/12/12 03:26:36;;;;;;;3.78;2.65;;;;;;;18.09;43.44;101368.13;5053424;28;20053;-83
2021/12/12 03:29:06;;;;;;;3.25;2.55;;;;;;;18.08;43.49;101369.94;5054911;28;20044;-82
2021/12/12 03:31:38;;;;;;;3.85;2.70;;;;;;;18.07;43.46;101365.56;5055353;28;20056;-82
2021/12/12 03:34:08;;;;;;;4.57;2.53;;;;;;;18.08;43.67;101367.28;5055340;28;20052;-84
2021/12/12 03:36:36;;;;;;;5.00;2.97;;;;;;;18.08;43.68;101371.78;5053801;28;20469;-84
2021/12/12 03:39:09;;;;;;;4.60;2.40;;;;;;;18.06;43.76;101374.56;5055175;28;20045;-85
2021/12/12 03:41:37;;;;;;;3.28;2.53;;;;;;;18.06;43.75;101374.56;5054742;28;20053;-84
2021/12/12 03:44:10;;;;;;;3.83;2.75;;;;;;;18.06;43.75;101379.91;5054952;28;20045;-84
2021/12/12 03:46:38;;;;;;;5.80;2.25;;;;;;;18.07;43.72;101381.66;5053710;28;20514;-84
2021/12/12 03:49:07;;;;;;;3.45;2.28;;;;;;;18.06;43.54;101376.38;5054561;28;20045;-84
2021/12/12 03:51:37;;;;;;;3.85;2.53;;;;;;;18.06;43.52;101382.59;5054639;28;20041;-84
2021/12/12 03:54:05;;;;;;;4.28;2.60;;;;;;;18.06;43.43;101373.69;5054747;28;20048;-84
2021/12/12 03:56:33;;;;;;;3.58;2.03;;;;;;;18.06;43.49;101374.56;5054597;28;20048;-84
2021/12/12 03:59:01;;;;;;;3.35;2.30;;;;;;;18.04;43.43;101372.00;5054360;28;20045;-84
2021/12/12 04:01:38;;;;;;;3.30;2.22;;;;;;;18.04;43.54;101380.03;5054269;28;20068;-84
2021/12/12 04:04:20;;;;;;;3.03;2.10;;;;;;;18.04;43.48;101381.84;5055041;28;20495;-85
2021/12/12 04:06:50;;;;;;;3.35;2.20;;;;;;;18.05;43.28;101388.91;5054354;28;20049;-83
2021/12/12 04:09:18;;;;;;;3.58;2.15;;;;;;;18.04;43.34;101396.09;5054846;28;20048;-83
2021/12/12 04:11:57;;;;;;;3.90;2.55;;;;;;;18.05;43.52;101399.63;5054331;28;20040;-84
2021/12/12 04:14:25;;;;;;;3.80;2.17;;;;;;;18.04;43.41;101403.28;5054625;28;20045;-83
2021/12/12 04:17:00;;;;;;;3.70;2.63;;;;;;;18.03;43.32;101415.84;5054598;28;20052;-83
2021/12/12 04:19:28;;;;;;;3.88;2.30;;;;;;;18.03;43.20;101417.66;5054573;28;20053;-83
2021/12/12 04:21:56;;;;;;;3.65;2.05;;;;;;;18.03;43.21;101428.38;5053516;28;20424;-84
2021/12/12 04:24:27;;;;;;;3.63;2.35;;;;;;;18.03;43.20;101426.56;5054098;28;20057;-83
2021/12/12 04:26:56;;;;;;;3.53;2.15;;;;;;;18.03;43.00;101425.69;5052988;28;20045;-83
2021/12/12 04:29:28;;;;;;;3.22;2.13;;;;;;;18.02;43.20;101422.13;5053825;28;20045;-83
2021/12/12 04:31:59;;;;;;;5.45;2.20;;;;;;;18.02;43.14;101427.50;5054218;28;20056;-83
2021/12/12 04:34:31;;;;;;;3.67;1.92;;;;;;;18.03;43.08;101428.38;5053660;28;20049;-84
2021/12/12 04:37:04;;;;;;;3.10;1.90;;;;;;;18.01;43.14;101425.78;5053837;28;20056;-85
2021/12/12 04:39:37;;;;;;;3.00;2.20;;;;;;;18.03;43.08;101445.31;5054065;28;20049;-84
2021/12/12 04:42:07;;;;;;;2.97;2.10;;;;;;;18.02;43.07;101435.53;5053743;28;20409;-83
2021/12/12 04:44:37;;;;;;;2.38;1.73;;;;;;;18.02;43.05;101435.53;5052343;28;20036;-84
2021/12/12 04:50:13;;;;;;;3.03;1.85;;;;;;;18.02;43.02;101446.25;5053227;28;20424;-85
2021/12/12 04:52:43;;;;;;;3.30;2.03;;;;;;;18.04;43.07;101451.50;5053722;28;20060;-85
2021/12/12 04:55:20;;;;;;;3.25;2.22;;;;;;;18.02;43.08;101454.28;5052982;28;20056;-85
2021/12/12 04:57:58;;;;;;;2.75;2.00;;;;;;;18.02;43.16;101450.75;5054007;28;20388;-83
2021/12/12 05:00:31;;;;;;;4.18;1.85;;;;;;;18.02;43.04;101453.44;5053806;28;20053;-83
2021/12/12 05:03:09;;;;;;;;;;;;;;;18.03;42.80;101460.53;5035758;28;20045;-83
2021/12/12 05:05:45;;;;;;;3.63;1.95;;;;;;;18.02;43.12;101458.78;5052935;28;19928;-83
2021/12/12 05:08:26;;;;;;;2.33;1.50;;;;;;;18.01;43.21;101467.81;5053634;28;20053;-83
2021/12/12 05:10:59;;;;;;;3.17;1.92;;;;;;;18.00;43.09;101461.59;5053472;28;20056;-83
2021/12/12 05:13:46;;;;;;;2.38;1.73;;;;;;;18.00;43.11;101474.13;5053524;28;20388;-84
2021/12/12 05:16:18;;;;;;;4.30;2.30;;;;;;;17.99;42.91;101481.31;5053945;28;20053;-84
2021/12/12 05:18:55;;;;;;;3.50;1.80;;;;;;;17.99;43.04;101486.69;5053498;28;20041;-84
2021/12/12 05:21:29;;;;;;;3.05;1.77;;;;;;;18.00;42.92;101490.22;5053625;28;20480;-83
2021/12/12 05:24:03;;;;;;;3.90;1.90;;;;;;;17.99;42.94;101497.38;5053715;28;20057;-84
2021/12/12 05:26:38;;;;;;;3.83;2.05;;;;;;;17.99;42.88;101497.38;5053622;28;20053;-83
2021/12/12 05:29:13;;;;;;;2.72;1.67;;;;;;;17.99;42.89;101496.53;5053330;28;20049;-83
2021/12/12 05:31:46;;;;;;;3.13;1.73;;;;;;;17.98;42.89;101506.38;5052213;28;20044;-83
2021/12/12 05:34:15;;;;;;;;;;;;;;;17.99;42.74;101515.28;5055431;28;20059;-83
2021/12/12 05:36:44;;;;;;;3.58;1.80;;;;;;;17.98;42.74;101516.22;5055415;28;19933;-84
2021/12/12 05:39:12;;;;;;;4.80;1.73;;;;;;;17.99;42.82;101523.31;5057537;28;20048;-84
2021/12/12 05:41:41;;;;;;;2.28;1.60;;;;;;;17.98;42.76;101529.63;5057106;28;20064;-83
2021/12/12 05:44:09;;;;;;;2.53;1.67;;;;;;;17.98;42.86;101532.31;5056126;28;20049;-84
2021/12/12 05:46:37;;;;;;;2.53;1.50;;;;;;;17.97;42.76;101539.50;5057624;28;20049;-84
2021/12/12 05:49:06;;;;;;;2.40;1.52;;;;;;;17.98;42.64;101538.50;5055517;28;20049;-82
2021/12/12 05:51:35;;;;;;;3.25;1.60;;;;;;;17.97;42.74;101535.97;5056722;28;20045;-83
2021/12/12 05:54:05;;;;;;;2.47;1.65;;;;;;;17.97;42.67;101546.66;5056593;28;20052;-82
2021/12/12 05:56:36;;;;;;;2.50;1.50;;;;;;;17.96;42.76;101551.19;5056643;28;20488;-84
2021/12/12 05:59:07;;;;;;;3.38;1.80;;;;;;;17.95;42.96;101548.63;5057705;28;20049;-84
2021/12/12 06:01:35;;;;;;;3.10;1.90;;;;;;;17.95;42.95;101548.63;5056501;28;20526;-84
2021/12/12 06:04:04;;;;;;;2.53;1.60;;;;;;;17.95;43.23;101553.97;5055892;28;20069;-84
2021/12/12 06:06:35;;;;;;;2.85;1.63;;;;;;;17.94;42.94;101546.88;5056905;28;20045;-82
2021/12/12 06:09:06;;;;;;;2.72;1.60;;;;;;;17.95;42.94;101553.97;5057387;28;20053;-83
2021/12/12 06:11:40;;;;;;;2.90;1.95;;;;;;;17.94;42.85;101560.28;5056298;28;20048;-82
2021/12/12 06:14:09;;;;;;;3.00;1.85;;;;;;;17.93;42.88;101566.59;5055317;28;20049;-82
2021/12/12 06:16:37;;;;;;;2.40;1.50;;;;;;;17.93;42.86;101574.63;5057222;28;20041;-83
2021/12/12 06:19:15;;;;;;;3.47;1.70;;;;;;;17.93;43.07;101580.00;5059157;28;20045;-87
2021/12/12 06:21:44;;;;;;;4.05;1.50;;;;;;;17.92;42.76;101580.97;5056646;28;20397;-84
2021/12/12 06:24:13;;;;;;;3.03;1.70;;;;;;;17.92;42.78;101583.63;5057392;28;20045;-84
2021/12/12 06:26:40;;;;;;;2.40;1.77;;;;;;;17.91;42.80;101584.63;5056179;28;20048;-83
2021/12/12 06:29:08;;;;;;;3.20;1.60;;;;;;;17.91;42.70;101582.78;5054822;28;20049;-83
2021/12/12 06:31:44;;;;;;;3.42;1.65;;;;;;;17.91;42.55;101600.69;5056124;28;20052;-84
2021/12/12 06:34:12;;;;;;;2.33;1.45;;;;;;;17.90;42.64;101599.78;5056856;28;20037;-83
2021/12/12 06:36:40;;;;;;;2.20;1.40;;;;;;;17.90;42.59;101601.63;5054642;28;20068;-84
2021/12/12 06:39:10;;;;;;;2.17;1.45;;;;;;;17.90;42.57;101604.31;5055498;28;20070;-84
2021/12/12 06:41:38;;;;;;;2.58;1.60;;;;;;;17.89;42.38;101608.81;5055448;28;20062;-83
2021/12/12 06:44:07;;;;;;;2.85;1.63;;;;;;;17.91;42.48;101611.41;5055744;28;20041;-84
2021/12/12 06:46:37;;;;;;;2.45;1.80;;;;;;;17.90;42.40;101623.06;5054556;28;20045;-84
2021/12/12 06:49:08;;;;;;;2.10;1.58;;;;;;;17.89;42.41;101624.88;5055322;28;20044;-84
2021/12/12 06:51:39;;;;;;;2.60;1.67;;;;;;;17.89;42.41;101635.59;5053851;28;20504;-83
2021/12/12 06:54:07;;;;;;;4.38;1.60;;;;;;;17.88;42.29;101625.84;5056235;28;20400;-84
2021/12/12 06:56:35;;;;;;;2.47;1.30;;;;;;;17.88;42.35;101628.53;5054170;28;20048;-84
2021/12/12 06:59:04;;;;;;;2.10;1.30;;;;;;;17.88;42.34;101625.84;5037461;28;20412;-84
2021/12/12 07:01:33;;;;;;;2.95;1.40;;;;;;;17.88;42.44;101641.91;5055255;28;20048;-84
2021/12/12 07:04:05;;;;;;;3.60;1.70;;;;;;;17.90;42.33;101647.16;5055833;28;20049;-84
2021/12/12 07:06:33;;;;;;;5.75;1.60;;;;;;;17.89;43.69;101653.47;5055889;28;20044;-84
2021/12/12 07:09:04;;;;;;;4.07;2.10;;;;;;;17.89;43.12;101657.03;5054247;28;20354;-83
2021/12/12 07:11:33;;;;;;;4.15;1.55;;;;;;;17.90;43.20;101657.88;5055634;28;20053;-83
2021/12/12 07:14:01;;;;;;;4.63;1.75;;;;;;;17.89;43.05;101653.47;5056080;28;20044;-83
2021/12/12 07:16:29;;;;;;;5.70;2.03;;;;;;;17.89;42.89;101664.19;5037522;28;20049;-83
2021/12/12 07:18:58;;;;;;;2.83;1.63;;;;;;;17.88;42.96;101663.34;5056651;28;20052;-83
2021/12/12 07:21:26;;;;;;;2.58;1.52;;;;;;;17.88;42.84;101670.53;5054195;28;20492;-84
2021/12/12 07:23:54;;;;;;;4.00;1.73;;;;;;;17.87;42.74;101668.81;5056480;28;20044;-83
2021/12/12 07:26:24;;;;;;;3.65;2.10;;;;;;;17.86;42.59;101673.28;5055997;28;20399;-83
2021/12/12 07:28:55;;;;;;;2.75;1.80;;;;;;;17.86;42.52;101672.44;5055306;28;20049;-84
2021/12/12 07:31:27;;;;;;;2.65;1.77;;;;;;;17.86;42.51;101683.16;5055240;28;20060;-84
2021/12/12 07:33:57;;;;;;;4.55;2.03;;;;;;;17.85;42.51;101693.00;5054961;28;20048;-85
2021/12/12 07:36:27;;;;;;;3.90;2.50;;;;;;;17.85;41.71;101700.19;5055759;28;20053;-85
2021/12/12 07:38:58;;;;;;;7.00;3.28;;;;;;;17.84;41.23;101693.97;5053294;28;20049;-84
2021/12/12 07:41:29;;;;;;;3.88;2.30;;;;;;;17.84;41.57;101693.13;5053324;28;20523;-84
2021/12/12 07:43:59;;;;;;;6.22;2.30;;;;;;;17.83;41.62;101692.25;5054716;28;20093;-84
2021/12/12 07:46:28;;;;;;;6.43;2.13;;;;;;;17.83;41.77;101702.97;5054378;28;20053;-84
2021/12/12 07:48:56;;;;;;;6.85;2.35;;;;;;;17.85;41.87;101702.88;5056074;28;20060;-82
2021/12/12 07:51:25;;;;;;;3.30;2.17;;;;;;;17.84;42.41;101695.81;5037755;28;20045;-83
2021/12/12 07:53:59;;;;;;;3.88;2.20;;;;;;;17.85;42.33;101700.19;5054529;28;20049;-85
2021/12/12 07:56:29;;;;;;;3.42;2.22;;;;;;;17.85;42.10;101702.88;5055599;28;20049;-85
2021/12/12 07:58:58;;;;;;;4.28;2.30;;;;;;;17.84;42.06;101699.34;5054707;28;20045;-85
2021/12/12 08:01:27;;;;;;;4.15;1.77;;;;;;;17.84;42.00;101695.81;5054700;28;20491;-83
2021/12/12 08:03:58;;;;;;;4.72;2.42;;;;;;;17.85;41.98;101697.50;5055053;28;20045;-82
2021/12/12 08:06:26;;;;;;;2.78;1.83;;;;;;;17.84;41.91;101699.34;5054400;28;20041;-83
2021/12/12 08:08:54;;;;;;;4.32;2.20;;;;;;;17.84;41.81;101706.50;5054644;28;20041;-83
2021/12/12 08:11:27;;;;;;;5.53;2.13;;;;;;;17.84;41.84;101717.22;5053045;28;20063;-83
2021/12/12 08:13:57;;;;;;;3.05;1.85;;;;;;;17.83;41.90;101719.06;5053819;28;20041;-83
2021/12/12 08:16:25;;;;;;;2.92;1.90;;;;;;;17.83;41.80;101721.72;5054806;28;20049;-82
2021/12/12 08:18:56;;;;;;;3.55;2.05;;;;;;;17.83;41.67;101728.91;5054771;28;20072;-83
2021/12/12 08:21:24;;;;;;;4.72;1.83;;;;;;;17.83;41.60;101731.59;5054328;28;20484;-83
2021/12/12 08:23:55;;;;;;;4.35;1.80;;;;;;;17.83;41.57;101735.13;5054571;28;20048;-83
2021/12/12 08:26:26;;;;;;;3.40;2.42;;;;;;;17.83;41.68;101736.94;5054637;28;20056;-83
2021/12/12 08:28:54;;;;;;;3.10;1.80;;;;;;;17.83;41.35;101736.94;5053716;28;20045;-83
2021/12/12 08:31:22;;;;;;;2.97;1.92;;;;;;;17.83;41.43;101734.28;5052663;28;20049;-83
2021/12/12 08:33:50;;;;;;;3.08;1.92;;;;;;;17.82;41.21;101738.72;5053951;28;20044;-83
2021/12/12 08:36:17;;;;;;;3.25;1.85;;;;;;;17.81;41.05;101739.69;5053385;28;20045;-83
2021/12/12 08:38:45;;;;;;;2.88;1.60;;;;;;;17.82;41.37;101741.41;5053744;28;20044;-83
2021/12/12 08:41:13;;;;;;;4.18;2.03;;;;;;;17.82;41.06;101737.88;5053368;28;20053;-83
2021/12/12 08:43:43;;;;;;;2.95;1.83;;;;;;;17.83;40.96;101748.50;5053549;28;20044;-83
2021/12/12 08:46:14;;;;;;;4.93;2.20;;;;;;;17.82;40.81;101746.78;5053663;28;20068;-83
2021/12/12 08:48:48;;;;;;;2.80;1.77;;;;;;;17.83;40.73;101750.34;5054070;28;20053;-83
2021/12/12 08:51:22;;;;;;;;;;;;;;;17.83;40.66;101753.00;5052845;28;20143;-83
2021/12/12 08:53:51;;;;;;;3.10;1.70;;;;;;;17.82;40.77;101752.13;5053970;28;19921;-83
2021/12/12 08:56:31;;;;;;;2.70;2.22;;;;;;;17.82;40.47;101748.59;5053182;28;20045;-83
2021/12/12 08:59:00;;;;;;;4.25;1.90;;;;;;;17.82;40.57;101756.63;5051785;28;20167;-84
2021/12/12 09:01:28;;;;;;;4.65;1.85;;;;;;;17.82;40.65;101752.13;5053046;28;20041;-83
2021/12/12 09:04:00;;;;;;;3.33;2.03;;;;;;;17.83;40.60;101748.50;5053798;28;20045;-84
2021/12/12 09:07:14;;;;;;;2.22;1.48;;;;;;;17.83;40.50;101758.38;5053580;28;20485;-83
2021/12/12 09:10:07;;;;;;;4.30;2.08;;;;;;;17.82;40.57;101749.44;5052901;28;20531;-82
2021/12/12 09:12:38;;;;;;;2.95;1.73;;;;;;;17.83;40.42;101761.06;5048796;28;20432;-82
2021/12/12 09:15:18;;;;;;;2.42;1.70;;;;;;;17.84;40.55;101760.09;5051797;28;20060;-82
2021/12/12 09:17:53;;;;;;;3.65;1.85;;;;;;;17.82;40.30;101765.53;5053905;28;20056;-82
2021/12/12 09:20:33;;;;;;;2.53;1.70;;;;;;;17.83;40.58;101772.63;5053420;28;20045;-82
2021/12/12 09:23:07;;;;;;;2.80;1.88;;;;;;;17.83;40.25;101774.44;5053344;28;20048;-82
2021/12/12 09:25:43;;;;;;;3.10;1.80;;;;;;;17.83;40.39;101777.97;5052961;28;20049;-82
2021/12/12 09:28:25;;;;;;;3.33;1.88;;;;;;;17.83;40.09;101774.44;5053417;28;20053;-82
2021/12/12 09:30:56;;;;;;;2.97;1.60;;;;;;;17.82;40.14;101772.69;5053462;28;20053;-82
2021/12/12 09:33:33;;;;;;;2.72;1.70;;;;;;;17.83;40.33;101769.09;5053880;28;20053;-82
2021/12/12 09:36:09;;;;;;;3.35;1.60;;;;;;;17.82;40.15;101767.34;5053624;28;20060;-83
2021/12/12 09:38:52;;;;;;;3.03;2.17;;;;;;;17.82;40.11;101773.56;5053504;28;20048;-82
2021/12/12 09:41:45;;;;;;;2.75;2.00;;;;;;;17.82;40.00;101776.22;5052837;28;20159;-82
2021/12/12 09:44:29;;;;;;;3.40;2.05;;;;;;;17.83;40.08;101780.66;5053230;28;20499;-82
2021/12/12 09:47:56;;;;;;;7.03;2.00;;;;;;;17.84;40.17;101776.16;5053366;28;20064;-82
2021/12/12 09:53:49;;;;;;;2.63;1.63;;;;;;;17.83;40.19;101777.13;5052841;28;20049;-84
2021/12/12 09:56:56;;;;;;;3.90;2.03;;;;;;;17.84;40.12;101778.84;5052166;28;20041;-85
2021/12/12 09:59:39;;;;;;;2.60;1.75;;;;;;;17.83;40.09;101786.00;5051254;28;20052;-85
2021/12/12 10:02:28;;;;;;;3.10;1.88;;;;;;;17.83;40.07;101790.50;5052931;28;20056;-84
2021/12/12 10:05:12;;;;;;;3.78;1.80;;;;;;;17.83;40.03;101786.00;5052697;28;20041;-83
2021/12/12 10:07:45;;;;;;;4.28;2.10;;;;;;;17.83;40.15;101783.34;5052675;28;20053;-83
2021/12/12 10:10:25;;;;;;;2.83;2.10;;;;;;;17.83;40.32;101786.00;5052600;28;20543;-84
2021/12/12 10:13:01;;;;;;;2.40;1.58;;;;;;;17.83;40.34;101779.81;5054409;28;20052;-85
2021/12/12 10:15:30;;;;;;;2.65;1.63;;;;;;;17.83;40.18;101783.34;5052940;28;20045;-84
2021/12/12 10:18:41;;;;;;;2.83;1.90;;;;;;;17.83;40.47;101777.97;5054086;28;20045;-85
2021/12/12 10:21:33;;;;;;;2.85;1.77;;;;;;;17.85;40.78;101780.53;5054446;28;20532;-82
2021/12/12 10:24:25;;;;;;;4.50;1.67;;;;;;;17.85;41.18;101784.09;5055903;28;20052;-84
2021/12/12 10:27:14;;;;;;;3.08;1.60;;;;;;;17.86;40.92;101779.56;5071042;28;20060;-84
2021/12/12 10:30:03;;;;;;;2.65;1.80;;;;;;;17.85;40.75;101786.75;5038580;28;20440;-84
2021/12/12 10:32:36;;;;;;;3.15;1.80;;;;;;;17.86;40.85;101790.28;5056643;28;20064;-84
2021/12/12 10:35:16;;;;;;;3.50;2.42;;;;;;;17.86;40.79;101784.94;5056508;28;20057;-82
2021/12/12 10:37:54;;;;;;;3.53;1.77;;;;;;;17.86;40.90;101788.47;5055760;28;20064;-81
2021/12/12 10:40:37;;;;;;;3.40;2.40;;;;;;;17.85;40.86;101789.44;5055262;28;20123;-82
2021/12/12 10:43:12;;;;;;;2.90;1.60;;;;;;;17.87;40.87;101784.00;5056086;28;20548;-82
2021/12/12 10:45:49;;;;;;;2.60;1.55;;;;;;;17.86;40.87;101784.94;5054688;28;20049;-82
2021/12/12 10:48:19;;;;;;;2.17;1.58;;;;;;;17.86;40.76;101790.28;5053843;28;20049;-82
2021/12/12 10:51:05;;;;;;;3.95;2.22;;;;;;;17.85;40.90;101786.75;5053699;28;20155;-82
2021/12/12 10:53:40;;;;;;;2.92;1.88;;;;;;;17.85;40.79;101785.91;5055290;28;20052;-82
2021/12/12 10:56:26;;;;;;;3.88;1.95;;;;;;;17.85;40.79;101785.91;5054156;28;20493;-82
2021/12/12 10:58:59;;;;;;;2.85;1.67;;;;;;;17.85;40.59;101786.75;5055823;28;20051;-82
2021/12/12 11:01:32;;;;;;;3.03;1.52;;;;;;;17.85;40.57;101784.09;5055844;28;20078;-82
2021/12/12 11:04:22;;;;;;;2.92;1.80;;;;;;;17.86;40.75;101784.94;5054643;28;20049;-81
2021/12/12 11:06:56;;;;;;;5.43;2.85;;;;;;;17.85;40.79;101785.91;5055111;28;20044;-85
2021/12/12 11:09:29;;;;;;;5.82;1.80;;;;;;;17.85;40.74;101788.59;5055521;28;20500;-83
2021/12/12 11:12:10;;;;;;;7.68;2.05;;;;;;;17.85;41.19;101789.44;5056493;28;20045;-85
2021/12/12 11:15:08;;;;;;;8.00;1.95;;;;;;;17.86;40.76;101787.63;5054172;28;20056;-87
2021/12/12 11:17:54;;;;;;;6.50;2.17;;;;;;;17.85;40.61;101793.94;5055722;28;20041;-85
2021/12/12 11:20:31;;;;;;;3.97;1.90;;;;;;;17.85;40.61;101780.53;5054684;28;20052;-85
2021/12/12 11:23:05;;;;;;;4.47;1.98;;;;;;;17.84;40.47;101789.56;5054969;28;20045;-85
2021/12/12 11:25:52;;;;;;;6.32;2.25;;;;;;;17.82;39.87;101797.66;5055117;28;20049;-84
2021/12/12 11:28:24;;;;;;;6.15;2.30;;;;;;;17.82;39.43;101789.63;5037298;28;20048;-84
2021/12/12 11:30:58;;;;;;;5.95;2.17;;;;;;;17.82;38.57;101791.44;5054781;28;20052;-85
2021/12/12 11:33:30;;;;;;;4.00;2.33;;;;;;;17.82;38.18;101788.78;5054757;28;20052;-84
2021/12/12 11:35:59;;;;;;;5.20;2.30;;;;;;;17.81;38.35;101790.59;5053616;28;20045;-87
2021/12/12 11:38:34;;;;;;;4.47;2.40;;;;;;;17.81;38.46;101790.59;5054709;28;20049;-86
2021/12/12 11:41:11;;;;;;;4.28;2.10;;;;;;;17.82;38.71;101792.31;5054584;28;20052;-86
2021/12/12 11:43:53;;;;;;;3.80;2.08;;;;;;;17.82;38.82;101792.31;5054580;28;20049;-86
2021/12/12 11:47:06;;;;;;;6.07;2.22;;;;;;;17.82;39.03;101784.28;5054430;28;20045;-84
2021/12/12 11:50:03;;;;;;;4.60;2.00;;;;;;;17.82;39.12;101799.50;5043775;28;20075;-85
2021/12/12 11:52:36;;;;;;;3.33;1.95;;;;;;;17.82;39.02;101791.44;5054227;28;20060;-84
2021/12/12 11:55:06;;;;;;;4.00;1.90;;;;;;;17.81;39.02;101793.28;5054045;28;20041;-85
2021/12/12 11:57:47;;;;;;;3.10;2.15;;;;;;;17.82;38.92;101791.44;5053209;28;20049;-85
2021/12/12 12:00:20;;;;;;;6.25;2.22;;;;;;;17.83;39.22;101793.19;5054241;28;20480;-84
2021/12/12 12:03:08;;;;;;;;;;;;;;;17.82;39.54;101794.13;5054490;28;20045;-84
2021/12/12 12:05:43;;;;;;;14.18;9.13;;;;;;;17.82;39.92;101797.66;5053048;28;19928;-84
2021/12/12 12:08:30;;;;;;;14.98;11.30;;;;;;;17.84;40.29;101805.63;5053897;28;20049;-84
2021/12/12 12:11:19;;;;;;;10.82;8.77;;;;;;;17.83;40.44;101798.56;5053434;28;20484;-84
2021/12/12 12:14:10;;;;;;;13.50;8.48;;;;;;;17.82;40.45;101800.34;5053770;28;20053;-84
2021/12/12 12:16:49;;;;;;;11.10;7.38;;;;;;;17.82;40.37;101794.13;5053165;28;20041;-84
2021/12/12 12:19:29;;;;;;;9.82;7.07;;;;;;;17.82;40.36;101799.50;5051743;28;20053;-84